sensor_id;sensor_type;location;lat;lon;timestamp;P1;durP1;ratioP1;P2;durP2;ratioP2
22904;SDS011;11619;50.140;8.518;2022-09-03T00:01:10;1.30;;;1.02;;
22904;SDS011;11619;50.140;8.518;2022-09-03T00:03:46;1.35;;;1.10;;
22904;SDS011;11619;50.140;8.518;2022-09-03T00:06:22;3.67;;;1.05;;
22904;SDS011;11619;50.140;8.518;2022-09-03T00:11:39;0.82;;;0.80;;
22904;SDS011;11619;50.140;8.518;2022-09-03T00:14:20;2.15;;;1.00;;
22904;SDS011;11619;50.140;8.518;2022-09-03T00:16:52;2.58;;;0.95;;
22904;SDS011;11619;50.140;8.518;2022-09-03T00:19:22;2.08;;;1.10;;
22904;SDS011;11619;50.140;8.518;2022-09-03T00:21:58;1.20;;;1.10;;
22904;SDS011;11619;50.140;8.518;2022-09-03T00:24:28;0.95;;;0.85;;
22904;SDS011;11619;50.140;8.518;2022-09-03T00:26:59;2.45;;;1.00;;
22904;SDS011;11619;50.140;8.518;2022-09-03T00:29:32;1.45;;;1.20;;
22904;SDS011;11619;50.140;8.518;2022-09-03T00:32:04;1.27;;;0.88;;
22904;SDS011;11619;50.140;8.518;2022-09-03T00:34:35;1.30;;;1.20;;
22904;SDS011;11619;50.140;8.518;2022-09-03T00:37:06;1.17;;;0.90;;
22904;SDS011;11619;50.140;8.518;2022-09-03T00:39:41;2.45;;;1.10;;
22904;SDS011;11619;50.140;8.518;2022-09-03T00:44:53;1.67;;;0.93;;
22904;SDS011;11619;50.140;8.518;2022-09-03T00:53:27;1.02;;;0.93;;
22904;SDS011;11619;50.140;8.518;2022-09-03T00:56:07;3.45;;;1.23;;
22904;SDS011;11619;50.140;8.518;2022-09-03T00:58:53;1.23;;;1.10;;
22904;SDS011;11619;50.140;8.518;2022-09-03T01:01:49;1.65;;;1.10;;
22904;SDS011;11619;50.140;8.518;2022-09-03T01:07:16;1.45;;;1.05;;
22904;SDS011;11619;50.140;8.518;2022-09-03T01:13:08;1.35;;;1.23;;
22904;SDS011;11619;50.140;8.518;2022-09-03T01:18:26;1.67;;;0.85;;
22904;SDS011;11619;50.140;8.518;2022-09-03T01:21:06;2.72;;;0.90;;
22904;SDS011;11619;50.140;8.518;2022-09-03T01:23:44;3.90;;;1.00;;
22904;SDS011;11619;50.140;8.518;2022-09-03T01:34:42;2.70;;;1.45;;
22904;SDS011;11619;50.140;8.518;2022-09-03T01:39:57;1.10;;;1.00;;
22904;SDS011;11619;50.140;8.518;2022-09-03T01:42:54;0.85;;;0.85;;
22904;SDS011;11619;50.140;8.518;2022-09-03T01:45:50;1.45;;;1.10;;
22904;SDS011;11619;50.140;8.518;2022-09-03T01:50:57;2.55;;;1.00;;
22904;SDS011;11619;50.140;8.518;2022-09-03T02:00:15;1.88;;;1.10;;
22904;SDS011;11619;50.140;8.518;2022-09-03T02:02:46;1.98;;;1.08;;
22904;SDS011;11619;50.140;8.518;2022-09-03T02:05:23;1.30;;;1.10;;
22904;SDS011;11619;50.140;8.518;2022-09-03T02:10:27;2.03;;;1.08;;
22904;SDS011;11619;50.140;8.518;2022-09-03T02:13:09;1.55;;;1.15;;
22904;SDS011;11619;50.140;8.518;2022-09-03T02:15:39;0.93;;;0.93;;
22904;SDS011;11619;50.140;8.518;2022-09-03T02:18:09;0.80;;;0.80;;
22904;SDS011;11619;50.140;8.518;2022-09-03T02:20:40;1.70;;;1.20;;
22904;SDS011;11619;50.140;8.518;2022-09-03T02:23:07;1.60;;;0.90;;
22904;SDS011;11619;50.140;8.518;2022-09-03T02:25:36;1.10;;;0.93;;
22904;SDS011;11619;50.140;8.518;2022-09-03T02:28:05;4.75;;;1.08;;
22904;SDS011;11619;50.140;8.518;2022-09-03T02:30:42;0.93;;;0.93;;
22904;SDS011;11619;50.140;8.518;2022-09-03T02:33:09;2.83;;;1.20;;
22904;SDS011;11619;50.140;8.518;2022-09-03T02:35:36;2.05;;;1.13;;
22904;SDS011;11619;50.140;8.518;2022-09-03T02:38:15;2.03;;;1.30;;
22904;SDS011;11619;50.140;8.518;2022-09-03T02:40:43;1.15;;;1.05;;
22904;SDS011;11619;50.140;8.518;2022-09-03T02:43:12;0.77;;;0.77;;
22904;SDS011;11619;50.140;8.518;2022-09-03T02:45:58;3.95;;;1.13;;
22904;SDS011;11619;50.140;8.518;2022-09-03T02:48:27;1.23;;;0.98;;
22904;SDS011;11619;50.140;8.518;2022-09-03T02:50:54;1.95;;;0.90;;
22904;SDS011;11619;50.140;8.518;2022-09-03T02:53:20;1.40;;;0.90;;
22904;SDS011;11619;50.140;8.518;2022-09-03T02:55:47;1.98;;;1.00;;
22904;SDS011;11619;50.140;8.518;2022-09-03T02:58:14;1.00;;;1.00;;
22904;SDS011;11619;50.140;8.518;2022-09-03T03:00:40;0.98;;;0.80;;
22904;SDS011;11619;50.140;8.518;2022-09-03T03:03:07;1.25;;;1.10;;
22904;SDS011;11619;50.140;8.518;2022-09-03T03:05:36;1.77;;;1.33;;
22904;SDS011;11619;50.140;8.518;2022-09-03T03:08:08;1.20;;;1.10;;
22904;SDS011;11619;50.140;8.518;2022-09-03T03:10:37;6.55;;;1.10;;
22904;SDS011;11619;50.140;8.518;2022-09-03T03:13:03;1.23;;;1.13;;
22904;SDS011;11619;50.140;8.518;2022-09-03T03:15:30;4.80;;;1.10;;
22904;SDS011;11619;50.140;8.518;2022-09-03T03:17:56;2.67;;;1.30;;
22904;SDS011;11619;50.140;8.518;2022-09-03T03:20:23;1.48;;;1.10;;
22904;SDS011;11619;50.140;8.518;2022-09-03T03:22:50;2.13;;;1.05;;
22904;SDS011;11619;50.140;8.518;2022-09-03T03:25:17;1.50;;;0.98;;
22904;SDS011;11619;50.140;8.518;2022-09-03T03:27:43;1.10;;;1.00;;
22904;SDS011;11619;50.140;8.518;2022-09-03T03:30:10;1.73;;;1.10;;
22904;SDS011;11619;50.140;8.518;2022-09-03T03:32:37;3.22;;;1.38;;
22904;SDS011;11619;50.140;8.518;2022-09-03T03:35:04;2.20;;;1.00;;
22904;SDS011;11619;50.140;8.518;2022-09-03T03:37:32;2.17;;;1.23;;
22904;SDS011;11619;50.140;8.518;2022-09-03T03:39:58;1.38;;;1.20;;
22904;SDS011;11619;50.140;8.518;2022-09-03T03:42:25;0.90;;;0.90;;
22904;SDS011;11619;50.140;8.518;2022-09-03T03:44:51;1.58;;;1.08;;
22904;SDS011;11619;50.140;8.518;2022-09-03T03:47:18;1.73;;;1.50;;
22904;SDS011;11619;50.140;8.518;2022-09-03T03:49:44;1.33;;;1.00;;
22904;SDS011;11619;50.140;8.518;2022-09-03T03:52:10;3.35;;;1.00;;
22904;SDS011;11619;50.140;8.518;2022-09-03T03:54:37;2.78;;;1.40;;
22904;SDS011;11619;50.140;8.518;2022-09-03T03:57:03;1.30;;;1.02;;
22904;SDS011;11619;50.140;8.518;2022-09-03T03:59:29;2.95;;;1.42;;
22904;SDS011;11619;50.140;8.518;2022-09-03T04:01:56;1.40;;;1.00;;
22904;SDS011;11619;50.140;8.518;2022-09-03T04:04:22;2.72;;;0.80;;
22904;SDS011;11619;50.140;8.518;2022-09-03T04:06:49;1.08;;;1.02;;
22904;SDS011;11619;50.140;8.518;2022-09-03T04:09:15;2.55;;;1.23;;
22904;SDS011;11619;50.140;8.518;2022-09-03T04:11:42;1.73;;;1.23;;
22904;SDS011;11619;50.140;8.518;2022-09-03T04:14:08;2.28;;;1.17;;
22904;SDS011;11619;50.140;8.518;2022-09-03T04:16:34;3.35;;;1.10;;
22904;SDS011;11619;50.140;8.518;2022-09-03T04:19:01;2.00;;;1.08;;
22904;SDS011;11619;50.140;8.518;2022-09-03T04:21:28;3.90;;;0.90;;
22904;SDS011;11619;50.140;8.518;2022-09-03T04:23:55;1.40;;;1.10;;
22904;SDS011;11619;50.140;8.518;2022-09-03T04:26:24;1.33;;;1.08;;
22904;SDS011;11619;50.140;8.518;2022-09-03T04:28:53;1.20;;;1.05;;
22904;SDS011;11619;50.140;8.518;2022-09-03T04:31:20;1.85;;;1.02;;
22904;SDS011;11619;50.140;8.518;2022-09-03T04:33:46;1.02;;;0.93;;
22904;SDS011;11619;50.140;8.518;2022-09-03T04:36:14;0.95;;;0.88;;
22904;SDS011;11619;50.140;8.518;2022-09-03T04:38:42;1.48;;;1.27;;
22904;SDS011;11619;50.140;8.518;2022-09-03T04:41:11;2.10;;;1.23;;
22904;SDS011;11619;50.140;8.518;2022-09-03T04:43:41;1.02;;;1.00;;
22904;SDS011;11619;50.140;8.518;2022-09-03T04:46:08;1.80;;;1.30;;
22904;SDS011;11619;50.140;8.518;2022-09-03T04:48:46;1.95;;;1.17;;
22904;SDS011;11619;50.140;8.518;2022-09-03T04:51:14;2.03;;;1.25;;
22904;SDS011;11619;50.140;8.518;2022-09-03T04:53:43;1.65;;;1.35;;
22904;SDS011;11619;50.140;8.518;2022-09-03T04:56:21;1.50;;;1.38;;
22904;SDS011;11619;50.140;8.518;2022-09-03T04:58:52;5.20;;;1.65;;
22904;SDS011;11619;50.140;8.518;2022-09-03T05:01:24;2.83;;;1.23;;
22904;SDS011;11619;50.140;8.518;2022-09-03T05:03:52;1.98;;;1.50;;
22904;SDS011;11619;50.140;8.518;2022-09-03T05:06:19;1.55;;;1.35;;
22904;SDS011;11619;50.140;8.518;2022-09-03T05:08:48;2.88;;;1.15;;
22904;SDS011;11619;50.140;8.518;2022-09-03T05:11:16;2.17;;;1.10;;
22904;SDS011;11619;50.140;8.518;2022-09-03T05:13:45;2.42;;;1.35;;
22904;SDS011;11619;50.140;8.518;2022-09-03T05:16:14;2.83;;;1.00;;
22904;SDS011;11619;50.140;8.518;2022-09-03T05:18:41;0.93;;;0.90;;
22904;SDS011;11619;50.140;8.518;2022-09-03T05:21:09;1.42;;;1.10;;
22904;SDS011;11619;50.140;8.518;2022-09-03T05:23:40;1.10;;;1.00;;
22904;SDS011;11619;50.140;8.518;2022-09-03T05:26:10;2.25;;;1.20;;
22904;SDS011;11619;50.140;8.518;2022-09-03T05:28:39;1.80;;;1.10;;
22904;SDS011;11619;50.140;8.518;2022-09-03T05:31:10;1.92;;;1.15;;
22904;SDS011;11619;50.140;8.518;2022-09-03T05:33:42;1.10;;;1.00;;
22904;SDS011;11619;50.140;8.518;2022-09-03T05:36:11;1.38;;;1.20;;
22904;SDS011;11619;50.140;8.518;2022-09-03T05:38:38;2.03;;;1.10;;
22904;SDS011;11619;50.140;8.518;2022-09-03T05:41:06;2.22;;;1.13;;
22904;SDS011;11619;50.140;8.518;2022-09-03T05:43:34;1.48;;;1.00;;
22904;SDS011;11619;50.140;8.518;2022-09-03T05:46:04;1.27;;;1.10;;
22904;SDS011;11619;50.140;8.518;2022-09-03T05:48:38;1.95;;;1.17;;
22904;SDS011;11619;50.140;8.518;2022-09-03T05:53:42;2.30;;;1.27;;
22904;SDS011;11619;50.140;8.518;2022-09-03T05:56:10;3.13;;;1.27;;
22904;SDS011;11619;50.140;8.518;2022-09-03T05:58:39;1.83;;;1.10;;
22904;SDS011;11619;50.140;8.518;2022-09-03T06:01:12;1.10;;;1.05;;
22904;SDS011;11619;50.140;8.518;2022-09-03T06:03:40;1.38;;;1.08;;
22904;SDS011;11619;50.140;8.518;2022-09-03T06:06:08;2.58;;;1.20;;
22904;SDS011;11619;50.140;8.518;2022-09-03T06:08:35;1.92;;;1.10;;
22904;SDS011;11619;50.140;8.518;2022-09-03T06:11:06;1.92;;;1.08;;
22904;SDS011;11619;50.140;8.518;2022-09-03T06:13:33;2.05;;;1.20;;
22904;SDS011;11619;50.140;8.518;2022-09-03T06:16:02;3.35;;;1.30;;
22904;SDS011;11619;50.140;8.518;2022-09-03T06:18:30;1.30;;;1.20;;
22904;SDS011;11619;50.140;8.518;2022-09-03T06:20:58;3.80;;;1.58;;
22904;SDS011;11619;50.140;8.518;2022-09-03T06:23:25;2.22;;;1.23;;
22904;SDS011;11619;50.140;8.518;2022-09-03T06:25:59;2.78;;;1.33;;
22904;SDS011;11619;50.140;8.518;2022-09-03T06:28:33;1.45;;;1.23;;
22904;SDS011;11619;50.140;8.518;2022-09-03T06:31:01;5.93;;;1.65;;
22904;SDS011;11619;50.140;8.518;2022-09-03T06:33:29;4.07;;;1.50;;
22904;SDS011;11619;50.140;8.518;2022-09-03T06:35:57;3.72;;;1.40;;
22904;SDS011;11619;50.140;8.518;2022-09-03T06:38:34;2.10;;;1.13;;
22904;SDS011;11619;50.140;8.518;2022-09-03T06:41:02;1.45;;;1.30;;
22904;SDS011;11619;50.140;8.518;2022-09-03T06:43:30;1.52;;;1.35;;
22904;SDS011;11619;50.140;8.518;2022-09-03T06:46:02;2.65;;;1.15;;
22904;SDS011;11619;50.140;8.518;2022-09-03T06:48:34;4.13;;;1.65;;
22904;SDS011;11619;50.140;8.518;2022-09-03T06:51:04;2.38;;;1.30;;
22904;SDS011;11619;50.140;8.518;2022-09-03T06:53:37;1.35;;;1.25;;
22904;SDS011;11619;50.140;8.518;2022-09-03T06:56:05;2.10;;;1.63;;
22904;SDS011;11619;50.140;8.518;2022-09-03T06:58:34;2.88;;;1.52;;
22904;SDS011;11619;50.140;8.518;2022-09-03T07:01:06;1.98;;;1.40;;
22904;SDS011;11619;50.140;8.518;2022-09-03T07:03:34;1.45;;;1.33;;
22904;SDS011;11619;50.140;8.518;2022-09-03T07:06:08;4.38;;;1.50;;
22904;SDS011;11619;50.140;8.518;2022-09-03T07:08:45;1.50;;;1.35;;
22904;SDS011;11619;50.140;8.518;2022-09-03T07:11:12;1.48;;;1.30;;
22904;SDS011;11619;50.140;8.518;2022-09-03T07:13:41;3.15;;;1.23;;
22904;SDS011;11619;50.140;8.518;2022-09-03T07:16:13;6.57;;;1.50;;
22904;SDS011;11619;50.140;8.518;2022-09-03T07:18:41;2.92;;;1.52;;
22904;SDS011;11619;50.140;8.518;2022-09-03T07:21:14;5.88;;;1.30;;
22904;SDS011;11619;50.140;8.518;2022-09-03T07:23:45;1.85;;;1.30;;
22904;SDS011;11619;50.140;8.518;2022-09-03T07:26:16;2.47;;;1.60;;
22904;SDS011;11619;50.140;8.518;2022-09-03T07:28:47;25.00;;;2.17;;
22904;SDS011;11619;50.140;8.518;2022-09-03T07:31:15;2.30;;;1.60;;
22904;SDS011;11619;50.140;8.518;2022-09-03T07:33:57;3.40;;;1.58;;
22904;SDS011;11619;50.140;8.518;2022-09-03T07:38:54;2.47;;;1.40;;
22904;SDS011;11619;50.140;8.518;2022-09-03T07:41:22;4.25;;;1.63;;
22904;SDS011;11619;50.140;8.518;2022-09-03T07:43:54;2.35;;;1.55;;
22904;SDS011;11619;50.140;8.518;2022-09-03T07:46:21;1.30;;;1.20;;
22904;SDS011;11619;50.140;8.518;2022-09-03T07:48:49;3.33;;;1.67;;
22904;SDS011;11619;50.140;8.518;2022-09-03T07:51:20;4.75;;;1.50;;
22904;SDS011;11619;50.140;8.518;2022-09-03T07:53:52;1.30;;;1.20;;
22904;SDS011;11619;50.140;8.518;2022-09-03T07:56:21;3.25;;;1.40;;
22904;SDS011;11619;50.140;8.518;2022-09-03T07:58:47;1.50;;;1.40;;
22904;SDS011;11619;50.140;8.518;2022-09-03T08:01:15;1.58;;;1.10;;
22904;SDS011;11619;50.140;8.518;2022-09-03T08:03:49;1.75;;;1.13;;
22904;SDS011;11619;50.140;8.518;2022-09-03T08:06:17;4.20;;;1.52;;
22904;SDS011;11619;50.140;8.518;2022-09-03T08:08:44;1.85;;;1.38;;
22904;SDS011;11619;50.140;8.518;2022-09-03T08:11:15;3.72;;;1.77;;
22904;SDS011;11619;50.140;8.518;2022-09-03T08:13:45;2.05;;;1.58;;
22904;SDS011;11619;50.140;8.518;2022-09-03T08:16:14;3.08;;;1.38;;
22904;SDS011;11619;50.140;8.518;2022-09-03T08:18:43;3.65;;;1.40;;
22904;SDS011;11619;50.140;8.518;2022-09-03T08:21:13;2.00;;;1.60;;
22904;SDS011;11619;50.140;8.518;2022-09-03T08:23:44;3.08;;;1.95;;
22904;SDS011;11619;50.140;8.518;2022-09-03T08:26:12;1.80;;;1.70;;
22904;SDS011;11619;50.140;8.518;2022-09-03T08:28:39;3.88;;;1.65;;
22904;SDS011;11619;50.140;8.518;2022-09-03T08:31:09;3.65;;;1.98;;
22904;SDS011;11619;50.140;8.518;2022-09-03T08:33:39;3.35;;;1.90;;
22904;SDS011;11619;50.140;8.518;2022-09-03T08:36:27;2.22;;;1.70;;
22904;SDS011;11619;50.140;8.518;2022-09-03T08:38:58;2.33;;;1.60;;
22904;SDS011;11619;50.140;8.518;2022-09-03T08:41:42;1.80;;;1.70;;
22904;SDS011;11619;50.140;8.518;2022-09-03T08:46:56;2.38;;;1.75;;
22904;SDS011;11619;50.140;8.518;2022-09-03T08:52:51;2.97;;;1.70;;
22904;SDS011;11619;50.140;8.518;2022-09-03T09:00:53;2.05;;;1.83;;
22904;SDS011;11619;50.140;8.518;2022-09-03T09:09:40;5.15;;;2.15;;
22904;SDS011;11619;50.140;8.518;2022-09-03T09:15:17;2.15;;;1.67;;
22904;SDS011;11619;50.140;8.518;2022-09-03T09:17:58;3.72;;;1.77;;
22904;SDS011;11619;50.140;8.518;2022-09-03T09:23:06;2.28;;;1.40;;
22904;SDS011;11619;50.140;8.518;2022-09-03T09:25:46;3.00;;;2.00;;
22904;SDS011;11619;50.140;8.518;2022-09-03T09:28:23;2.30;;;2.10;;
22904;SDS011;11619;50.140;8.518;2022-09-03T09:30:53;3.92;;;1.92;;
22904;SDS011;11619;50.140;8.518;2022-09-03T09:33:20;4.03;;;2.28;;
22904;SDS011;11619;50.140;8.518;2022-09-03T09:35:48;4.75;;;2.35;;
22904;SDS011;11619;50.140;8.518;2022-09-03T09:38:15;2.35;;;1.88;;
22904;SDS011;11619;50.140;8.518;2022-09-03T09:40:53;2.97;;;1.80;;
22904;SDS011;11619;50.140;8.518;2022-09-03T09:43:22;2.20;;;1.70;;
22904;SDS011;11619;50.140;8.518;2022-09-03T09:45:50;6.45;;;2.17;;
22904;SDS011;11619;50.140;8.518;2022-09-03T09:48:28;3.88;;;2.42;;
22904;SDS011;11619;50.140;8.518;2022-09-03T09:51:03;3.00;;;2.20;;
22904;SDS011;11619;50.140;8.518;2022-09-03T09:53:30;5.53;;;2.60;;
22904;SDS011;11619;50.140;8.518;2022-09-03T09:55:57;3.55;;;2.88;;
22904;SDS011;11619;50.140;8.518;2022-09-03T09:58:24;3.08;;;2.70;;
22904;SDS011;11619;50.140;8.518;2022-09-03T10:01:17;3.47;;;2.50;;
22904;SDS011;11619;50.140;8.518;2022-09-03T10:04:22;3.55;;;2.35;;
22904;SDS011;11619;50.140;8.518;2022-09-03T10:06:36;2.83;;;2.17;;
22904;SDS011;11619;50.140;8.518;2022-09-03T10:09:22;5.05;;;2.47;;
22904;SDS011;11619;50.140;8.518;2022-09-03T10:12:12;1.95;;;1.83;;
22904;SDS011;11619;50.140;8.518;2022-09-03T10:14:46;2.60;;;2.00;;
22904;SDS011;11619;50.140;8.518;2022-09-03T10:17:23;4.32;;;2.13;;
22904;SDS011;11619;50.140;8.518;2022-09-03T10:22:59;2.10;;;1.90;;
22904;SDS011;11619;50.140;8.518;2022-09-03T10:25:41;3.85;;;2.40;;
22904;SDS011;11619;50.140;8.518;2022-09-03T10:28:15;3.65;;;2.40;;
22904;SDS011;11619;50.140;8.518;2022-09-03T10:30:48;3.55;;;2.10;;
22904;SDS011;11619;50.140;8.518;2022-09-03T10:33:34;10.40;;;2.35;;
22904;SDS011;11619;50.140;8.518;2022-09-03T10:39:21;3.85;;;2.10;;
22904;SDS011;11619;50.140;8.518;2022-09-03T10:42:02;3.70;;;2.10;;
22904;SDS011;11619;50.140;8.518;2022-09-03T10:47:31;2.95;;;2.28;;
22904;SDS011;11619;50.140;8.518;2022-09-03T10:50:12;3.15;;;2.28;;
22904;SDS011;11619;50.140;8.518;2022-09-03T10:55:33;3.22;;;2.20;;
22904;SDS011;11619;50.140;8.518;2022-09-03T10:58:28;3.95;;;2.13;;
22904;SDS011;11619;50.140;8.518;2022-09-03T11:01:03;2.58;;;2.33;;
22904;SDS011;11619;50.140;8.518;2022-09-03T11:03:44;5.20;;;2.60;;
22904;SDS011;11619;50.140;8.518;2022-09-03T11:08:50;2.92;;;2.50;;
22904;SDS011;11619;50.140;8.518;2022-09-03T11:11:25;4.13;;;2.88;;
22904;SDS011;11619;50.140;8.518;2022-09-03T11:14:09;2.63;;;2.42;;
22904;SDS011;11619;50.140;8.518;2022-09-03T11:16:40;5.00;;;2.80;;
22904;SDS011;11619;50.140;8.518;2022-09-03T11:19:11;2.95;;;2.75;;
22904;SDS011;11619;50.140;8.518;2022-09-03T11:21:41;3.33;;;2.67;;
22904;SDS011;11619;50.140;8.518;2022-09-03T11:24:12;3.60;;;2.35;;
22904;SDS011;11619;50.140;8.518;2022-09-03T11:26:52;3.35;;;2.92;;
22904;SDS011;11619;50.140;8.518;2022-09-03T11:30:25;5.15;;;3.28;;
22904;SDS011;11619;50.140;8.518;2022-09-03T11:32:27;3.08;;;2.78;;
22904;SDS011;11619;50.140;8.518;2022-09-03T11:35:00;4.88;;;2.75;;
22904;SDS011;11619;50.140;8.518;2022-09-03T11:37:27;3.45;;;2.95;;
22904;SDS011;11619;50.140;8.518;2022-09-03T11:39:56;3.88;;;2.97;;
22904;SDS011;11619;50.140;8.518;2022-09-03T11:42:42;4.72;;;2.70;;
22904;SDS011;11619;50.140;8.518;2022-09-03T11:48:29;3.42;;;2.85;;
22904;SDS011;11619;50.140;8.518;2022-09-03T11:50:59;6.15;;;3.30;;
22904;SDS011;11619;50.140;8.518;2022-09-03T11:53:32;3.90;;;2.60;;
22904;SDS011;11619;50.140;8.518;2022-09-03T11:56:00;3.17;;;2.80;;
22904;SDS011;11619;50.140;8.518;2022-09-03T11:58:46;2.88;;;2.67;;
22904;SDS011;11619;50.140;8.518;2022-09-03T12:01:29;2.63;;;2.42;;
22904;SDS011;11619;50.140;8.518;2022-09-03T12:04:05;4.57;;;2.45;;
22904;SDS011;11619;50.140;8.518;2022-09-03T12:14:33;3.92;;;3.00;;
22904;SDS011;11619;50.140;8.518;2022-09-03T12:17:11;2.90;;;2.60;;
22904;SDS011;11619;50.140;8.518;2022-09-03T12:19:49;4.68;;;2.50;;
22904;SDS011;11619;50.140;8.518;2022-09-03T12:22:18;3.05;;;2.30;;
22904;SDS011;11619;50.140;8.518;2022-09-03T12:24:46;3.00;;;2.45;;
22904;SDS011;11619;50.140;8.518;2022-09-03T12:27:23;2.45;;;2.17;;
22904;SDS011;11619;50.140;8.518;2022-09-03T12:29:52;2.40;;;2.20;;
22904;SDS011;11619;50.140;8.518;2022-09-03T12:32:29;3.15;;;2.30;;
22904;SDS011;11619;50.140;8.518;2022-09-03T12:34:57;2.65;;;2.17;;
22904;SDS011;11619;50.140;8.518;2022-09-03T12:37:35;3.30;;;1.98;;
22904;SDS011;11619;50.140;8.518;2022-09-03T12:40:24;4.38;;;1.75;;
22904;SDS011;11619;50.140;8.518;2022-09-03T12:42:52;1.70;;;1.60;;
22904;SDS011;11619;50.140;8.518;2022-09-03T12:45:20;2.35;;;2.13;;
22904;SDS011;11619;50.140;8.518;2022-09-03T12:47:48;1.70;;;1.60;;
22904;SDS011;11619;50.140;8.518;2022-09-03T12:50:20;2.38;;;1.88;;
22904;SDS011;11619;50.140;8.518;2022-09-03T12:52:56;1.90;;;1.80;;
22904;SDS011;11619;50.140;8.518;2022-09-03T12:58:02;2.55;;;2.05;;
22904;SDS011;11619;50.140;8.518;2022-09-03T13:00:38;4.57;;;1.77;;
22904;SDS011;11619;50.140;8.518;2022-09-03T13:03:28;2.85;;;2.33;;
22904;SDS011;11619;50.140;8.518;2022-09-03T13:06:05;2.35;;;2.15;;
22904;SDS011;11619;50.140;8.518;2022-09-03T13:08:39;2.25;;;2.05;;
22904;SDS011;11619;50.140;8.518;2022-09-03T13:11:17;2.88;;;1.83;;
22904;SDS011;11619;50.140;8.518;2022-09-03T13:14:04;2.55;;;1.90;;
22904;SDS011;11619;50.140;8.518;2022-09-03T13:30:21;2.95;;;2.25;;
22904;SDS011;11619;50.140;8.518;2022-09-03T13:38:19;3.33;;;2.25;;
22904;SDS011;11619;50.140;8.518;2022-09-03T13:40:57;2.63;;;2.10;;
22904;SDS011;11619;50.140;8.518;2022-09-03T13:43:29;5.22;;;2.40;;
22904;SDS011;11619;50.140;8.518;2022-09-03T13:46:07;1.88;;;1.77;;
22904;SDS011;11619;50.140;8.518;2022-09-03T13:48:40;3.28;;;2.30;;
22904;SDS011;11619;50.140;8.518;2022-09-03T13:51:27;2.13;;;1.85;;
22904;SDS011;11619;50.140;8.518;2022-09-03T13:59:11;2.33;;;1.80;;
22904;SDS011;11619;50.140;8.518;2022-09-03T14:02:01;2.05;;;1.80;;
22904;SDS011;11619;50.140;8.518;2022-09-03T14:04:33;2.15;;;1.80;;
22904;SDS011;11619;50.140;8.518;2022-09-03T14:12:41;2.78;;;1.98;;
22904;SDS011;11619;50.140;8.518;2022-09-03T14:15:21;2.58;;;2.28;;
22904;SDS011;11619;50.140;8.518;2022-09-03T14:17:55;1.63;;;1.52;;
22904;SDS011;11619;50.140;8.518;2022-09-03T14:20:28;1.98;;;1.77;;
22904;SDS011;11619;50.140;8.518;2022-09-03T14:25:33;1.98;;;1.77;;
22904;SDS011;11619;50.140;8.518;2022-09-03T14:28:13;2.88;;;1.52;;
22904;SDS011;11619;50.140;8.518;2022-09-03T14:30:52;1.70;;;1.50;;
22904;SDS011;11619;50.140;8.518;2022-09-03T14:33:30;1.65;;;1.55;;
22904;SDS011;11619;50.140;8.518;2022-09-03T14:36:05;1.88;;;1.60;;
22904;SDS011;11619;50.140;8.518;2022-09-03T14:39:21;1.63;;;1.52;;
22904;SDS011;11619;50.140;8.518;2022-09-03T14:55:55;3.63;;;1.67;;
22904;SDS011;11619;50.140;8.518;2022-09-03T14:58:41;2.38;;;1.55;;
22904;SDS011;11619;50.140;8.518;2022-09-03T15:01:22;2.40;;;2.03;;
22904;SDS011;11619;50.140;8.518;2022-09-03T15:12:18;1.42;;;1.33;;
22904;SDS011;11619;50.140;8.518;2022-09-03T15:17:24;1.77;;;1.67;;
22904;SDS011;11619;50.140;8.518;2022-09-03T15:19:59;2.13;;;1.50;;
22904;SDS011;11619;50.140;8.518;2022-09-03T15:27:58;3.35;;;1.48;;
22904;SDS011;11619;50.140;8.518;2022-09-03T15:30:34;1.42;;;1.25;;
22904;SDS011;11619;50.140;8.518;2022-09-03T15:33:21;1.70;;;1.60;;
22904;SDS011;11619;50.140;8.518;2022-09-03T15:36:14;1.88;;;1.77;;
22904;SDS011;11619;50.140;8.518;2022-09-03T15:39:00;1.40;;;1.30;;
22904;SDS011;11619;50.140;8.518;2022-09-03T15:41:34;2.67;;;1.45;;
22904;SDS011;11619;50.140;8.518;2022-09-03T15:44:07;2.70;;;1.30;;
22904;SDS011;11619;50.140;8.518;2022-09-03T15:46:48;1.85;;;1.35;;
22904;SDS011;11619;50.140;8.518;2022-09-03T15:49:27;2.17;;;1.60;;
22904;SDS011;11619;50.140;8.518;2022-09-03T15:54:29;1.70;;;1.60;;
22904;SDS011;11619;50.140;8.518;2022-09-03T15:57:05;1.63;;;1.52;;
22904;SDS011;11619;50.140;8.518;2022-09-03T15:59:40;2.20;;;1.92;;
22904;SDS011;11619;50.140;8.518;2022-09-03T16:16:03;2.00;;;1.80;;
22904;SDS011;11619;50.140;8.518;2022-09-03T16:18:32;2.05;;;1.77;;
22904;SDS011;11619;50.140;8.518;2022-09-03T16:28:45;2.28;;;1.65;;
22904;SDS011;11619;50.140;8.518;2022-09-03T16:42:09;2.92;;;2.03;;
22904;SDS011;11619;50.140;8.518;2022-09-03T16:47:41;2.58;;;1.90;;
22904;SDS011;11619;50.140;8.518;2022-09-03T16:50:21;2.83;;;1.70;;
22904;SDS011;11619;50.140;8.518;2022-09-03T16:53:02;1.80;;;1.70;;
22904;SDS011;11619;50.140;8.518;2022-09-03T16:55:55;3.00;;;1.95;;
22904;SDS011;11619;50.140;8.518;2022-09-03T16:58:35;2.08;;;1.73;;
22904;SDS011;11619;50.140;8.518;2022-09-03T17:03:56;1.88;;;1.77;;
22904;SDS011;11619;50.140;8.518;2022-09-03T17:18:18;1.65;;;1.13;;
22904;SDS011;11619;50.140;8.518;2022-09-03T17:31:14;1.10;;;1.00;;
22904;SDS011;11619;50.140;8.518;2022-09-03T17:39:55;2.75;;;0.85;;
22904;SDS011;11619;50.140;8.518;2022-09-03T17:42:28;0.88;;;0.88;;
22904;SDS011;11619;50.140;8.518;2022-09-03T17:45:05;1.17;;;1.08;;
22904;SDS011;11619;50.140;8.518;2022-09-03T17:47:38;1.10;;;1.00;;
22904;SDS011;11619;50.140;8.518;2022-09-03T17:50:27;1.08;;;1.00;;
22904;SDS011;11619;50.140;8.518;2022-09-03T17:52:58;0.73;;;0.73;;
22904;SDS011;11619;50.140;8.518;2022-09-03T17:55:32;1.10;;;0.88;;
22904;SDS011;11619;50.140;8.518;2022-09-03T18:03:27;2.38;;;1.73;;
22904;SDS011;11619;50.140;8.518;2022-09-03T18:06:03;1.52;;;1.42;;
22904;SDS011;11619;50.140;8.518;2022-09-03T18:08:43;3.00;;;1.73;;
22904;SDS011;11619;50.140;8.518;2022-09-03T18:11:27;1.65;;;1.30;;
22904;SDS011;11619;50.140;8.518;2022-09-03T18:14:01;2.88;;;1.08;;
22904;SDS011;11619;50.140;8.518;2022-09-03T18:16:34;3.53;;;1.20;;
22904;SDS011;11619;50.140;8.518;2022-09-03T18:22:01;1.17;;;1.08;;
22904;SDS011;11619;50.140;8.518;2022-09-03T18:24:50;0.80;;;0.80;;
22904;SDS011;11619;50.140;8.518;2022-09-03T18:27:39;0.90;;;0.70;;
22904;SDS011;11619;50.140;8.518;2022-09-03T18:30:27;1.05;;;0.77;;
22904;SDS011;11619;50.140;8.518;2022-09-03T18:33:12;0.88;;;0.88;;
22904;SDS011;11619;50.140;8.518;2022-09-03T18:35:58;0.77;;;0.75;;
22904;SDS011;11619;50.140;8.518;2022-09-03T18:38:43;1.17;;;1.08;;
22904;SDS011;11619;50.140;8.518;2022-09-03T18:44:51;2.10;;;1.00;;
22904;SDS011;11619;50.140;8.518;2022-09-03T18:48:16;1.35;;;0.82;;
22904;SDS011;11619;50.140;8.518;2022-09-03T18:51:09;0.80;;;0.80;;
22904;SDS011;11619;50.140;8.518;2022-09-03T18:57:24;0.63;;;0.60;;
22904;SDS011;11619;50.140;8.518;2022-09-03T19:00:13;0.95;;;0.90;;
22904;SDS011;11619;50.140;8.518;2022-09-03T19:18:15;2.00;;;1.25;;
22904;SDS011;11619;50.140;8.518;2022-09-03T19:24:59;12.38;;;1.85;;
22904;SDS011;11619;50.140;8.518;2022-09-03T19:43:41;0.75;;;0.70;;
22904;SDS011;11619;50.140;8.518;2022-09-03T19:46:38;0.82;;;0.82;;
22904;SDS011;11619;50.140;8.518;2022-09-03T19:55:35;1.27;;;0.90;;
22904;SDS011;11619;50.140;8.518;2022-09-03T19:58:32;1.38;;;1.00;;
22904;SDS011;11619;50.140;8.518;2022-09-03T20:01:19;2.30;;;1.00;;
22904;SDS011;11619;50.140;8.518;2022-09-03T20:04:09;5.40;;;0.95;;
22904;SDS011;11619;50.140;8.518;2022-09-03T20:06:57;2.05;;;1.30;;
22904;SDS011;11619;50.140;8.518;2022-09-03T20:09:44;4.53;;;1.10;;
22904;SDS011;11619;50.140;8.518;2022-09-03T20:12:34;2.00;;;1.55;;
22904;SDS011;11619;50.140;8.518;2022-09-03T20:15:05;1.65;;;1.40;;
22904;SDS011;11619;50.140;8.518;2022-09-03T20:18:19;1.17;;;1.08;;